createdAt,value
2024-01-15T00:00:01.269Z,924.00
2024-01-15T00:01:00.457Z,930.00
2024-01-15T00:02:00.343Z,929.00
2024-01-15T00:03:00.331Z,924.00
2024-01-15T00:04:00.466Z,930.00
2024-01-15T00:05:00.414Z,921.00
2024-01-15T00:06:00.392Z,930.00
2024-01-15T00:07:00.493Z,920.00
2024-01-15T00:08:00.371Z,932.00
2024-01-15T00:09:00.372Z,930.00
2024-01-15T00:10:00.452Z,930.00
2024-01-15T00:11:00.373Z,935.00
2024-01-15T00:12:00.410Z,933.00
2024-01-15T00:13:00.453Z,924.00
2024-01-15T00:14:00.469Z,921.00
2024-01-15T00:15:00.512Z,939.00
2024-01-15T00:16:00.520Z,940.00
2024-01-15T00:17:00.551Z,921.00
2024-01-15T00:18:00.625Z,921.00
2024-01-15T00:19:00.672Z,927.00
2024-01-15T00:20:00.731Z,915.00
2024-01-15T00:21:00.629Z,931.00
2024-01-15T00:22:00.648Z,922.00
2024-01-15T00:23:00.680Z,919.00
2024-01-15T00:24:00.703Z,918.00
2024-01-15T00:25:00.735Z,922.00
2024-01-15T00:26:00.769Z,920.00
2024-01-15T00:27:00.778Z,915.00
2024-01-15T00:28:00.781Z,926.00
2024-01-15T00:29:00.766Z,918.00
2024-01-15T00:30:00.793Z,916.00
2024-01-15T00:31:00.843Z,913.00
2024-01-15T00:32:00.805Z,917.00
2024-01-15T00:33:00.851Z,917.00
2024-01-15T00:34:00.957Z,915.00
2024-01-15T00:35:00.813Z,913.00
2024-01-15T00:36:00.851Z,922.00
2024-01-15T00:37:00.877Z,902.00
2024-01-15T00:38:00.890Z,907.00
2024-01-15T00:39:00.919Z,907.00
2024-01-15T00:40:00.965Z,905.00
2024-01-15T00:41:00.971Z,906.00
2024-01-15T00:42:01.056Z,907.00
2024-01-15T00:43:01.052Z,910.00
2024-01-15T00:44:01.033Z,904.00
2024-01-15T00:45:01.065Z,899.00
2024-01-15T00:46:01.039Z,902.00
2024-01-15T00:47:01.056Z,905.00
2024-01-15T00:48:01.135Z,897.00
2024-01-15T00:49:01.204Z,901.00
2024-01-15T00:50:01.115Z,896.00
2024-01-15T00:51:01.113Z,903.00
2024-01-15T00:52:01.184Z,905.00
2024-01-15T00:53:01.203Z,901.00
2024-01-15T00:54:01.219Z,899.00
2024-01-15T00:55:01.265Z,893.00
2024-01-15T00:56:01.300Z,897.00
2024-01-15T00:57:01.321Z,893.00
2024-01-15T00:58:01.334Z,898.00
2024-01-15T00:59:01.366Z,893.00
2024-01-15T01:00:03.909Z,894.00
2024-01-15T01:01:01.459Z,894.00
2024-01-15T01:02:01.367Z,894.00
2024-01-15T01:03:01.406Z,891.00
2024-01-15T01:04:01.646Z,890.00
2024-01-15T01:05:01.423Z,883.00
2024-01-15T01:06:01.452Z,904.00
2024-01-15T01:07:01.403Z,909.00
2024-01-15T01:08:01.376Z,886.00
2024-01-15T01:09:01.380Z,896.00
2024-01-15T01:10:01.384Z,893.00
2024-01-15T01:11:01.381Z,888.00
2024-01-15T01:12:01.393Z,890.00
2024-01-15T01:13:01.389Z,893.00
2024-01-15T01:14:01.388Z,891.00
2024-01-15T01:15:01.393Z,893.00
2024-01-15T01:16:01.393Z,889.00
2024-01-15T01:17:01.391Z,885.00
2024-01-15T01:18:01.559Z,884.00
2024-01-15T01:19:01.560Z,880.00
2024-01-15T01:20:01.634Z,897.00
2024-01-15T01:21:01.390Z,891.00
2024-01-15T01:22:01.404Z,885.00
2024-01-15T01:23:01.412Z,892.00
2024-01-15T01:24:01.403Z,882.00
2024-01-15T01:25:01.426Z,886.00
2024-01-15T01:26:01.413Z,889.00
2024-01-15T01:27:01.411Z,886.00
2024-01-15T01:28:01.395Z,882.00
2024-01-15T01:29:01.401Z,880.00
2024-01-15T01:30:01.421Z,879.00
2024-01-15T01:31:01.507Z,879.00
2024-01-15T01:32:01.424Z,882.00
2024-01-15T01:33:01.430Z,877.00
2024-01-15T01:34:01.501Z,880.00
2024-01-15T01:35:01.509Z,882.00
2024-01-15T01:36:01.422Z,872.00
2024-01-15T01:37:01.425Z,878.00
2024-01-15T01:38:01.430Z,875.00
2024-01-15T01:39:01.446Z,869.00
2024-01-15T01:40:01.506Z,865.00
2024-01-15T01:41:01.545Z,873.00
2024-01-15T01:42:01.550Z,873.00
2024-01-15T01:43:01.568Z,862.00
2024-01-15T01:44:01.607Z,871.00
2024-01-15T01:45:01.695Z,868.00
2024-01-15T01:46:01.841Z,862.00
2024-01-15T01:47:01.675Z,859.00
2024-01-15T01:48:01.783Z,863.00
2024-01-15T01:49:01.807Z,868.00
2024-01-15T01:50:01.705Z,853.00
2024-01-15T01:51:01.707Z,857.00
2024-01-15T01:52:01.722Z,862.00
2024-01-15T01:53:01.718Z,862.00
2024-01-15T01:54:01.769Z,854.00
2024-01-15T01:55:01.797Z,856.00
2024-01-15T01:56:01.840Z,859.00
2024-01-15T01:57:01.881Z,860.00
2024-01-15T01:58:01.910Z,853.00
2024-01-15T01:59:01.937Z,856.00
2024-01-15T02:00:02.072Z,848.00
2024-01-15T02:01:02.241Z,849.00
2024-01-15T02:02:02.048Z,851.00
2024-01-15T02:03:02.074Z,850.00
2024-01-15T02:04:02.242Z,861.00
2024-01-15T02:05:02.222Z,843.00
2024-01-15T02:06:02.264Z,848.00
2024-01-15T02:07:02.270Z,841.00
2024-01-15T02:08:02.153Z,846.00
2024-01-15T02:09:02.165Z,844.00
2024-01-15T02:10:02.189Z,840.00
2024-01-15T02:11:02.268Z,842.00
2024-01-15T02:12:02.285Z,839.00
2024-01-15T02:13:02.306Z,844.00
2024-01-15T02:14:02.361Z,845.00
2024-01-15T02:15:02.427Z,835.00
2024-01-15T02:16:02.456Z,843.00
2024-01-15T02:17:02.478Z,841.00
2024-01-15T02:18:02.641Z,842.00
2024-01-15T02:19:02.609Z,827.00
2024-01-15T02:20:02.667Z,834.00
2024-01-15T02:21:02.607Z,829.00
2024-01-15T02:22:02.634Z,827.00
2024-01-15T02:23:02.685Z,824.00
2024-01-15T02:24:02.706Z,826.00
2024-01-15T02:25:02.773Z,841.00
2024-01-15T02:26:02.805Z,835.00
2024-01-15T02:27:02.827Z,842.00
2024-01-15T02:28:02.876Z,827.00
2024-01-15T02:29:02.899Z,826.00
2024-01-15T02:30:02.941Z,836.00
2024-01-15T02:31:03.076Z,828.00
2024-01-15T02:32:03.059Z,826.00
2024-01-15T02:33:03.108Z,837.00
2024-01-15T02:34:03.184Z,821.00
2024-01-15T02:35:03.105Z,825.00
2024-01-15T02:36:03.108Z,834.00
2024-01-15T02:37:03.149Z,838.00
2024-01-15T02:38:03.123Z,832.00
2024-01-15T02:39:03.153Z,823.00
2024-01-15T02:40:03.171Z,834.00
2024-01-15T02:41:03.185Z,823.00
2024-01-15T02:42:03.199Z,834.00
2024-01-15T02:43:03.260Z,815.00
2024-01-15T02:44:03.193Z,826.00
2024-01-15T02:45:03.217Z,821.00
2024-01-15T02:46:03.243Z,820.00
2024-01-15T02:47:03.251Z,822.00
2024-01-15T02:48:03.371Z,822.00
2024-01-15T02:49:03.408Z,829.00
2024-01-15T02:50:03.384Z,817.00
2024-01-15T02:51:03.366Z,823.00
2024-01-15T02:52:03.357Z,824.00
2024-01-15T02:53:03.382Z,822.00
2024-01-15T02:54:03.389Z,820.00
2024-01-15T02:55:03.418Z,826.00
2024-01-15T02:56:03.419Z,819.00
2024-01-15T02:57:03.406Z,820.00
2024-01-15T02:58:03.421Z,822.00
2024-01-15T02:59:03.426Z,822.00
2024-01-15T03:00:03.454Z,820.00
2024-01-15T03:01:03.698Z,815.00
2024-01-15T03:02:03.474Z,829.00
2024-01-15T03:03:03.476Z,825.00
2024-01-15T03:04:03.516Z,823.00
2024-01-15T03:05:03.492Z,820.00
2024-01-15T03:06:03.529Z,830.00
2024-01-15T03:07:03.497Z,826.00
2024-01-15T03:08:03.498Z,823.00
2024-01-15T03:09:03.487Z,821.00
2024-01-15T03:10:03.492Z,820.00
2024-01-15T03:11:03.524Z,829.00
2024-01-15T03:12:03.519Z,825.00
2024-01-15T03:13:03.537Z,821.00
2024-01-15T03:14:03.536Z,822.00
2024-01-15T03:15:03.558Z,819.00
2024-01-15T03:16:03.568Z,825.00
2024-01-15T03:17:03.619Z,826.00
2024-01-15T03:18:03.608Z,821.00
2024-01-15T03:19:03.636Z,825.00
2024-01-15T03:20:03.706Z,817.00
2024-01-15T03:21:03.627Z,828.00
2024-01-15T03:22:03.661Z,828.00
2024-01-15T03:23:03.653Z,823.00
2024-01-15T03:24:03.663Z,832.00
2024-01-15T03:25:03.673Z,826.00
2024-01-15T03:26:03.691Z,819.00
2024-01-15T03:27:03.721Z,827.00
2024-01-15T03:28:03.736Z,827.00
2024-01-15T03:29:03.747Z,830.00
2024-01-15T03:30:03.806Z,822.00
2024-01-15T03:31:03.835Z,828.00
2024-01-15T03:32:03.832Z,818.00
2024-01-15T03:33:03.791Z,820.00
2024-01-15T03:34:03.875Z,834.00
2024-01-15T03:35:03.980Z,828.00
2024-01-15T03:36:03.802Z,823.00
2024-01-15T03:37:03.817Z,834.00
2024-01-15T03:38:03.825Z,827.00
2024-01-15T03:39:03.848Z,828.00
2024-01-15T03:40:03.983Z,833.00
2024-01-15T03:41:03.851Z,827.00
2024-01-15T03:42:03.856Z,836.00
2024-01-15T03:43:03.860Z,837.00
2024-01-15T03:44:03.874Z,842.00
2024-01-15T03:45:03.867Z,835.00
2024-01-15T03:46:03.994Z,829.00
2024-01-15T03:47:03.890Z,834.00
2024-01-15T03:48:03.956Z,841.00
2024-01-15T03:49:04.040Z,839.00
2024-01-15T03:50:03.958Z,834.00
2024-01-15T03:51:04.024Z,840.00
2024-01-15T03:52:04.055Z,832.00
2024-01-15T03:53:04.112Z,842.00
2024-01-15T03:54:04.104Z,841.00
2024-01-15T03:55:04.168Z,836.00
2024-01-15T03:56:04.129Z,839.00
2024-01-15T03:57:04.136Z,837.00
2024-01-15T03:58:04.146Z,843.00
2024-01-15T03:59:04.128Z,840.00
2024-01-15T04:00:04.190Z,845.00
2024-01-15T04:01:04.271Z,846.00
2024-01-15T04:02:04.172Z,845.00
2024-01-15T04:03:04.197Z,849.00
2024-01-15T04:04:04.271Z,845.00
2024-01-15T04:05:04.223Z,854.00
2024-01-15T04:06:04.279Z,844.00
2024-01-15T04:07:04.237Z,846.00
2024-01-15T04:08:04.229Z,847.00
2024-01-15T04:09:04.260Z,843.00
2024-01-15T04:10:04.227Z,844.00
2024-01-15T04:11:04.223Z,843.00
2024-01-15T04:12:04.234Z,843.00
2024-01-15T04:13:04.234Z,848.00
2024-01-15T04:14:04.224Z,854.00
2024-01-15T04:15:04.261Z,848.00
2024-01-15T04:16:04.298Z,854.00
2024-01-15T04:17:04.372Z,852.00
2024-01-15T04:18:04.473Z,858.00
2024-01-15T04:19:04.580Z,852.00
2024-01-15T04:20:04.508Z,855.00
2024-01-15T04:21:04.522Z,853.00
2024-01-15T04:22:04.540Z,851.00
2024-01-15T04:23:04.558Z,851.00
2024-01-15T04:24:04.567Z,853.00
2024-01-15T04:25:04.579Z,860.00
2024-01-15T04:26:04.571Z,856.00
2024-01-15T04:27:04.599Z,873.00
2024-01-15T04:28:04.616Z,861.00
2024-01-15T04:29:04.617Z,867.00
2024-01-15T04:30:04.703Z,864.00
2024-01-15T04:31:04.741Z,862.00
2024-01-15T04:32:04.676Z,876.00
2024-01-15T04:33:04.811Z,869.00
2024-01-15T04:34:04.835Z,875.00
2024-01-15T04:35:04.779Z,866.00
2024-01-15T04:36:04.841Z,867.00
2024-01-15T04:37:04.899Z,872.00
2024-01-15T04:38:04.956Z,873.00
2024-01-15T04:39:04.989Z,869.00
2024-01-15T04:40:05.048Z,867.00
2024-01-15T04:41:04.980Z,870.00
2024-01-15T04:42:04.990Z,879.00
2024-01-15T04:43:05.000Z,880.00
2024-01-15T04:44:05.019Z,878.00
2024-01-15T04:45:12.361Z,600.00
2024-01-15T04:46:12.322Z,600.00
2024-01-15T04:47:12.307Z,600.00
2024-01-15T04:48:12.469Z,600.00
2024-01-15T04:49:12.420Z,600.00
2024-01-15T04:50:12.329Z,602.00
2024-01-15T04:51:12.367Z,601.00
2024-01-15T04:52:12.328Z,605.00
2024-01-15T04:53:13.689Z,604.00
2024-01-15T04:54:12.345Z,605.00
2024-01-15T04:55:12.328Z,603.00
2024-01-15T04:56:12.323Z,604.00
2024-01-15T04:57:12.371Z,602.00
2024-01-15T04:58:12.335Z,603.00
2024-01-15T04:59:12.323Z,603.00
2024-01-15T05:00:12.368Z,608.00
2024-01-15T05:01:12.511Z,605.00
2024-01-15T05:02:12.334Z,607.00
2024-01-15T05:03:12.367Z,606.00
2024-01-15T05:04:12.545Z,606.00
2024-01-15T05:05:12.362Z,608.00
2024-01-15T05:06:12.436Z,607.00
2024-01-15T05:07:12.340Z,600.00
2024-01-15T05:08:12.341Z,606.00
2024-01-15T05:09:12.365Z,608.00
2024-01-15T05:10:12.351Z,606.00
2024-01-15T05:11:12.339Z,604.00
2024-01-15T05:12:12.374Z,605.00
2024-01-15T05:13:12.366Z,605.00
2024-01-15T05:14:12.365Z,607.00
2024-01-15T05:15:12.387Z,608.00
2024-01-15T05:16:12.344Z,604.00
2024-01-15T05:17:12.360Z,605.00
2024-01-15T05:18:12.504Z,608.00
2024-01-15T05:19:12.417Z,608.00
2024-01-15T05:20:12.440Z,606.00
2024-01-15T05:21:12.405Z,608.00
2024-01-15T05:22:12.383Z,604.00
2024-01-15T05:23:12.415Z,607.00
2024-01-15T05:24:12.425Z,604.00
2024-01-15T05:25:12.470Z,605.00
2024-01-15T05:26:12.522Z,605.00
2024-01-15T05:27:12.635Z,602.00
2024-01-15T05:28:12.643Z,604.00
2024-01-15T05:29:12.699Z,603.00
2024-01-15T05:30:12.886Z,600.00
2024-01-15T05:31:12.937Z,606.00
2024-01-15T05:32:12.901Z,604.00
2024-01-15T05:33:13.025Z,607.00
2024-01-15T05:34:13.103Z,604.00
2024-01-15T05:35:13.046Z,603.00
2024-01-15T05:36:13.078Z,603.00
2024-01-15T05:37:13.071Z,602.00
2024-01-15T05:38:13.076Z,602.00
2024-01-15T05:39:13.082Z,603.00
2024-01-15T05:40:13.091Z,603.00
2024-01-15T05:41:13.102Z,600.00
2024-01-15T05:42:13.144Z,607.00
2024-01-15T05:43:13.117Z,605.00
2024-01-15T05:44:13.129Z,606.00
2024-01-15T05:45:13.171Z,605.00
2024-01-15T05:46:13.178Z,604.00
2024-01-15T05:47:13.258Z,609.00
2024-01-15T05:48:13.430Z,605.00
2024-01-15T05:49:13.574Z,607.00
2024-01-15T05:50:13.426Z,601.00
2024-01-15T05:51:13.549Z,607.00
2024-01-15T05:52:13.552Z,601.00
2024-01-15T05:53:13.619Z,607.00
2024-01-15T05:54:13.638Z,603.00
2024-01-15T05:55:13.660Z,603.00
2024-01-15T05:56:13.630Z,604.00
2024-01-15T05:57:13.720Z,605.00
2024-01-15T05:58:13.758Z,610.00
2024-01-15T05:59:15.844Z,607.00
2024-01-15T06:00:14.016Z,603.00
2024-01-15T06:01:14.032Z,608.00
2024-01-15T06:02:13.967Z,610.00
2024-01-15T06:03:14.099Z,606.00
2024-01-15T06:04:14.201Z,606.00
2024-01-15T06:05:14.137Z,606.00
2024-01-15T06:06:14.317Z,608.00
2024-01-15T06:07:14.138Z,608.00
2024-01-15T06:08:14.155Z,611.00
2024-01-15T06:09:14.182Z,607.00
2024-01-15T06:10:14.189Z,605.00
2024-01-15T06:11:14.198Z,605.00
2024-01-15T06:12:14.447Z,606.00
2024-01-15T06:13:14.234Z,609.00
2024-01-15T06:14:14.232Z,606.00
2024-01-15T06:15:14.308Z,606.00
2024-01-15T06:16:14.260Z,602.00
2024-01-15T06:17:14.304Z,606.00
2024-01-15T06:18:14.442Z,603.00
2024-01-15T06:19:14.397Z,606.00
2024-01-15T06:20:14.352Z,608.00
2024-01-15T06:21:14.386Z,607.00
2024-01-15T06:22:14.388Z,608.00
2024-01-15T06:23:14.396Z,606.00
2024-01-15T06:24:14.490Z,605.00
2024-01-15T06:25:14.436Z,605.00
2024-01-15T06:26:14.511Z,610.00
2024-01-15T06:27:14.681Z,604.00
2024-01-15T06:28:14.675Z,606.00
2024-01-15T06:29:14.749Z,603.00
2024-01-15T06:30:14.841Z,604.00
2024-01-15T06:31:15.077Z,604.00
2024-01-15T06:32:15.003Z,599.00
2024-01-15T06:33:15.080Z,600.00
2024-01-15T06:34:15.133Z,600.00
2024-01-15T06:35:15.119Z,603.00
2024-01-15T06:36:15.199Z,601.00
2024-01-15T06:37:15.198Z,602.00
2024-01-15T06:38:15.257Z,604.00
2024-01-15T06:39:15.333Z,600.00
2024-01-15T06:40:15.363Z,602.00
2024-01-15T06:41:15.461Z,617.00
2024-01-15T06:42:15.436Z,643.00
2024-01-15T06:43:15.436Z,733.00
2024-01-15T06:44:15.497Z,802.00
2024-01-15T06:45:15.464Z,788.00
2024-01-15T06:46:15.496Z,780.00
2024-01-15T06:47:15.438Z,767.00
2024-01-15T06:48:15.476Z,742.00
2024-01-15T06:49:15.545Z,738.00
2024-01-15T06:50:15.463Z,723.00
2024-01-15T06:51:16.007Z,713.00
2024-01-15T06:52:15.480Z,696.00
2024-01-15T06:53:15.491Z,771.00
2024-01-15T06:54:15.550Z,765.00
2024-01-15T06:55:15.524Z,749.00
2024-01-15T06:56:15.542Z,725.00
2024-01-15T06:57:15.654Z,722.00
2024-01-15T06:58:15.544Z,741.00
2024-01-15T06:59:19.229Z,747.00
2024-01-15T07:00:15.661Z,747.00
2024-01-15T07:01:15.774Z,752.00
2024-01-15T07:02:15.579Z,764.00
2024-01-15T07:03:15.698Z,778.00
2024-01-15T07:04:15.652Z,798.00
2024-01-15T07:05:15.701Z,786.00
2024-01-15T07:06:15.786Z,776.00
2024-01-15T07:07:15.579Z,764.00
2024-01-15T07:08:15.598Z,761.00
2024-01-15T07:09:15.627Z,794.00
2024-01-15T07:10:15.581Z,800.00
2024-01-15T07:11:15.980Z,775.00
2024-01-15T07:12:15.648Z,765.00
2024-01-15T07:13:15.663Z,765.00
2024-01-15T07:14:15.710Z,756.00
2024-01-15T07:15:15.853Z,758.00
2024-01-15T07:16:29.773Z,751.00
2024-01-15T07:17:16.818Z,751.00
2024-01-15T07:18:15.894Z,753.00
2024-01-15T07:19:15.925Z,759.00
2024-01-15T07:20:15.830Z,761.00
2024-01-15T07:21:15.825Z,781.00
2024-01-15T07:22:15.976Z,772.00
2024-01-15T07:23:15.838Z,805.00
2024-01-15T07:24:15.916Z,823.00
2024-01-15T07:25:15.918Z,815.00
2024-01-15T07:26:16.001Z,818.00
2024-01-15T07:27:16.519Z,823.00
2024-01-15T07:28:16.129Z,826.00
2024-01-15T07:29:16.161Z,854.00
2024-01-15T07:30:16.345Z,877.00
2024-01-15T07:31:16.360Z,875.00
2024-01-15T07:32:16.516Z,840.00
2024-01-15T07:33:16.546Z,828.00
2024-01-15T07:34:16.544Z,799.00
2024-01-15T07:35:16.481Z,807.00
2024-01-15T07:36:16.562Z,790.00
2024-01-15T07:37:16.520Z,780.00
2024-01-15T07:38:16.566Z,778.00
2024-01-15T07:39:16.684Z,776.00
2024-01-15T07:40:16.704Z,766.00
2024-01-15T07:41:16.654Z,773.00
2024-01-15T07:42:17.069Z,783.00
2024-01-15T07:43:17.482Z,791.00
2024-01-15T07:44:16.824Z,808.00
2024-01-15T07:45:16.908Z,813.00
2024-01-15T07:46:16.903Z,800.00
2024-01-15T07:47:16.913Z,855.00
2024-01-15T07:48:17.034Z,1004.00
2024-01-15T07:49:17.048Z,1089.00
2024-01-15T07:50:16.985Z,1085.00
2024-01-15T07:51:17.039Z,1037.00
2024-01-15T07:52:17.495Z,1003.00
2024-01-15T07:53:17.049Z,984.00
2024-01-15T07:54:17.100Z,946.00
2024-01-15T07:55:17.083Z,925.00
2024-01-15T07:56:17.116Z,916.00
2024-01-15T07:57:17.145Z,913.00
2024-01-15T07:58:17.442Z,895.00
2024-01-15T07:59:17.171Z,880.00
2024-01-15T08:00:17.202Z,862.00
2024-01-15T08:01:17.363Z,856.00
2024-01-15T08:02:17.524Z,834.00
2024-01-15T08:03:17.257Z,839.00
2024-01-15T08:04:17.313Z,835.00
2024-01-15T08:05:17.298Z,842.00
2024-01-15T08:06:17.390Z,854.00
2024-01-15T08:07:17.528Z,865.00
2024-01-15T08:08:17.398Z,893.00
2024-01-15T08:09:17.460Z,899.00
2024-01-15T08:10:18.459Z,881.00
2024-01-15T08:11:17.508Z,885.00
2024-01-15T08:12:18.939Z,876.00
2024-01-15T08:13:17.558Z,871.00
2024-01-15T08:14:17.609Z,871.00
2024-01-15T08:15:17.616Z,879.00
2024-01-15T08:16:17.751Z,888.00
2024-01-15T08:17:18.007Z,886.00
2024-01-15T08:18:17.806Z,878.00
2024-01-15T08:19:17.882Z,865.00
2024-01-15T08:20:17.765Z,861.00
2024-01-15T08:21:17.822Z,856.00
2024-01-15T08:22:17.749Z,843.00
2024-01-15T08:23:17.788Z,843.00
2024-01-15T08:24:17.947Z,872.00
2024-01-15T08:25:17.931Z,910.00
2024-01-15T08:26:17.953Z,865.00
2024-01-15T08:27:18.029Z,863.00
2024-01-15T08:28:18.012Z,920.00
2024-01-15T08:29:18.038Z,923.00
2024-01-15T08:30:18.069Z,918.00
2024-01-15T08:31:18.167Z,928.00
2024-01-15T08:32:18.577Z,923.00
2024-01-15T08:33:22.045Z,920.00
2024-01-15T08:34:18.160Z,915.00
2024-01-15T08:35:18.174Z,909.00
2024-01-15T08:36:18.137Z,912.00
2024-01-15T08:37:18.112Z,897.00
2024-01-15T08:38:18.540Z,904.00
2024-01-15T08:39:18.170Z,895.00
2024-01-15T08:40:18.155Z,898.00
2024-01-15T08:41:18.125Z,878.00
2024-01-15T08:42:18.558Z,889.00
2024-01-15T08:43:18.136Z,889.00
2024-01-15T08:44:18.133Z,889.00
2024-01-15T08:45:18.145Z,889.00
2024-01-15T08:46:18.128Z,890.00
2024-01-15T08:47:18.123Z,890.00
2024-01-15T08:48:18.169Z,875.00
2024-01-15T08:50:18.136Z,865.00
2024-01-15T08:51:18.199Z,855.00
2024-01-15T08:52:18.147Z,860.00
2024-01-15T08:53:18.132Z,856.00
2024-01-15T08:54:18.187Z,870.00
2024-01-15T08:55:18.153Z,864.00
2024-01-15T08:56:18.152Z,860.00
2024-01-15T08:57:18.206Z,858.00
2024-01-15T08:58:18.178Z,862.00
2024-01-15T08:59:18.200Z,847.00
2024-01-15T09:00:18.282Z,841.00
2024-01-15T09:01:18.373Z,835.00
2024-01-15T09:02:18.361Z,835.00
2024-01-15T09:03:18.407Z,830.00
2024-01-15T09:04:18.579Z,824.00
2024-01-15T09:05:18.554Z,810.00
2024-01-15T09:06:18.517Z,804.00
2024-01-15T09:07:18.518Z,795.00
2024-01-15T09:08:18.483Z,779.00
2024-01-15T09:09:18.575Z,793.00
2024-01-15T09:10:18.513Z,803.00
2024-01-15T09:11:18.535Z,844.00
2024-01-15T09:12:19.040Z,854.00
2024-01-15T09:13:18.596Z,869.00
2024-01-15T09:14:24.035Z,888.00
2024-01-15T09:15:19.630Z,889.00
2024-01-15T09:16:18.721Z,884.00
2024-01-15T09:17:19.033Z,876.00
2024-01-15T09:18:18.623Z,853.00
2024-01-15T09:19:18.684Z,849.00
2024-01-15T09:20:18.588Z,838.00
2024-01-15T09:21:18.591Z,828.00
2024-01-15T09:22:19.018Z,818.00
2024-01-15T09:23:18.594Z,809.00
2024-01-15T09:24:18.615Z,794.00
2024-01-15T09:25:19.615Z,781.00
2024-01-15T09:26:18.602Z,785.00
2024-01-15T09:27:18.604Z,764.00
2024-01-15T09:28:18.594Z,773.00
2024-01-15T09:29:19.082Z,779.00
2024-01-15T09:30:18.732Z,765.00
2024-01-15T09:31:18.736Z,752.00
2024-01-15T09:32:18.618Z,759.00
2024-01-15T09:33:18.822Z,754.00
2024-01-15T09:34:18.969Z,750.00
2024-01-15T09:35:18.596Z,733.00
2024-01-15T09:36:18.642Z,713.00
2024-01-15T09:37:32.054Z,687.00
2024-01-15T09:38:19.613Z,653.00
2024-01-15T09:39:18.667Z,633.00
2024-01-15T09:40:18.725Z,609.00
2024-01-15T09:41:18.657Z,585.00
2024-01-15T09:42:21.055Z,557.00
2024-01-15T09:43:18.719Z,575.00
2024-01-15T09:44:18.716Z,593.00
2024-01-15T09:45:18.778Z,601.00
2024-01-15T09:46:18.738Z,600.00
2024-01-15T09:47:19.044Z,602.00
2024-01-15T09:48:18.785Z,598.00
2024-01-15T09:49:18.846Z,600.00
2024-01-15T09:50:19.019Z,598.00
2024-01-15T09:51:18.778Z,600.00
2024-01-15T09:52:19.124Z,600.00
2024-01-15T09:53:18.828Z,603.00
2024-01-15T09:54:18.748Z,602.00
2024-01-15T09:55:18.735Z,612.00
2024-01-15T09:56:18.740Z,625.00
2024-01-15T09:57:18.823Z,639.00
2024-01-15T09:58:18.737Z,653.00
2024-01-15T09:59:18.749Z,660.00
2024-01-15T10:00:18.805Z,675.00
2024-01-15T10:01:18.854Z,694.00
2024-01-15T10:02:19.065Z,729.00
2024-01-15T10:03:18.821Z,750.00
2024-01-15T10:04:18.833Z,784.00
2024-01-15T10:05:18.752Z,831.00
2024-01-15T10:06:21.161Z,874.00
2024-01-15T10:07:19.114Z,875.00
2024-01-15T10:08:19.056Z,884.00
2024-01-15T10:09:18.803Z,906.00
2024-01-15T10:10:18.756Z,950.00
2024-01-15T10:11:18.818Z,1006.00
2024-01-15T10:12:18.809Z,1034.00
2024-01-15T10:13:18.762Z,1061.00
2024-01-15T10:14:18.776Z,1064.00
2024-01-15T10:15:18.799Z,1067.00
2024-01-15T10:16:18.746Z,1076.00
2024-01-15T10:17:19.226Z,1086.00
2024-01-15T10:18:19.165Z,1110.00
2024-01-15T10:19:18.868Z,1118.00
2024-01-15T10:20:18.772Z,1126.00
2024-01-15T10:21:18.816Z,1148.00
2024-01-15T10:22:19.522Z,1163.00
2024-01-15T10:23:18.761Z,1216.00
2024-01-15T10:24:18.805Z,1239.00
2024-01-15T10:25:18.786Z,1284.00
2024-01-15T10:26:19.608Z,1299.00
2024-01-15T10:27:18.865Z,1298.00
2024-01-15T10:28:18.798Z,1276.00
2024-01-15T10:29:18.781Z,1276.00
2024-01-15T10:30:18.848Z,1247.00
2024-01-15T10:31:18.896Z,1210.00
2024-01-15T10:32:19.091Z,1174.00
2024-01-15T10:33:19.306Z,1144.00
2024-01-15T10:34:18.927Z,1136.00
2024-01-15T10:35:18.783Z,1113.00
2024-01-15T10:36:18.835Z,1121.00
2024-01-15T10:37:18.818Z,1111.00
2024-01-15T10:38:19.043Z,1124.00
2024-01-15T10:39:18.791Z,1124.00
2024-01-15T10:40:18.784Z,1133.00
2024-01-15T10:41:18.839Z,1166.00
2024-01-15T10:42:18.830Z,1191.00
2024-01-15T10:43:18.804Z,1195.00
2024-01-15T10:44:18.790Z,1168.00
2024-01-15T10:45:18.827Z,1151.00
2024-01-15T10:46:18.785Z,1138.00
2024-01-15T10:47:18.778Z,1127.00
2024-01-15T10:48:19.170Z,1120.00
2024-01-15T10:49:18.946Z,1110.00
2024-01-15T10:50:18.806Z,1104.00
2024-01-15T10:51:18.815Z,1089.00
2024-01-15T10:52:18.806Z,1086.00
2024-01-15T10:53:18.867Z,1069.00
2024-01-15T10:54:18.830Z,1072.00
2024-01-15T10:55:20.104Z,1045.00
2024-01-15T10:56:18.807Z,1023.00
2024-01-15T10:57:18.817Z,1025.00
2024-01-15T10:58:18.862Z,1023.00
2024-01-15T10:59:18.940Z,1013.00
2024-01-15T11:00:18.899Z,1025.00
2024-01-15T11:01:18.985Z,1018.00
2024-01-15T11:02:18.827Z,998.00
2024-01-15T11:03:18.924Z,1003.00
2024-01-15T11:04:18.884Z,1011.00
2024-01-15T11:05:18.818Z,1006.00
2024-01-15T11:06:18.926Z,1005.00
2024-01-15T11:07:18.896Z,1005.00
2024-01-15T11:08:18.866Z,999.00
2024-01-15T11:09:18.968Z,997.00
2024-01-15T11:10:18.941Z,1001.00
2024-01-15T11:11:18.980Z,1035.00
2024-01-15T11:12:19.029Z,1019.00
2024-01-15T11:13:18.991Z,1001.00
2024-01-15T11:14:19.034Z,1001.00
2024-01-15T11:15:19.095Z,971.00
2024-01-15T11:16:19.102Z,976.00
2024-01-15T11:17:19.108Z,962.00
2024-01-15T11:18:19.211Z,977.00
2024-01-15T11:19:19.239Z,961.00
2024-01-15T11:20:19.173Z,951.00
2024-01-15T11:21:19.382Z,949.00
2024-01-15T11:22:19.245Z,918.00
2024-01-15T11:23:19.260Z,879.00
2024-01-15T11:24:19.603Z,863.00
2024-01-15T11:25:19.388Z,808.00
2024-01-15T11:26:19.408Z,801.00
2024-01-15T11:27:19.516Z,798.00
2024-01-15T11:28:19.519Z,795.00
2024-01-15T11:29:19.454Z,798.00
2024-01-15T11:30:20.111Z,797.00
2024-01-15T11:31:19.661Z,815.00
2024-01-15T11:32:19.580Z,831.00
2024-01-15T11:33:19.636Z,868.00
2024-01-15T11:34:20.131Z,910.00
2024-01-15T11:35:19.733Z,929.00
2024-01-15T11:36:19.862Z,994.00
2024-01-15T11:37:19.848Z,997.00
2024-01-15T11:38:19.897Z,1010.00
2024-01-15T11:39:20.012Z,1003.00
2024-01-15T11:40:20.071Z,991.00
2024-01-15T11:41:20.094Z,975.00
2024-01-15T11:42:20.190Z,988.00
2024-01-15T11:43:20.197Z,984.00
2024-01-15T11:44:20.256Z,988.00
2024-01-15T11:45:20.439Z,974.00
2024-01-15T11:46:20.354Z,953.00
2024-01-15T11:47:20.399Z,943.00
2024-01-15T11:48:20.493Z,953.00
2024-01-15T11:49:20.600Z,931.00
2024-01-15T11:50:20.551Z,923.00
2024-01-15T11:51:20.624Z,898.00
2024-01-15T11:52:21.091Z,876.00
2024-01-15T11:53:20.776Z,853.00
2024-01-15T11:54:20.848Z,867.00
2024-01-15T11:55:20.942Z,877.00
2024-01-15T11:56:20.934Z,847.00
2024-01-15T11:57:21.065Z,838.00
2024-01-15T11:58:21.062Z,835.00
2024-01-15T11:59:21.199Z,825.00
2024-01-15T12:00:21.279Z,786.00
2024-01-15T12:01:21.377Z,768.00
2024-01-15T12:02:21.589Z,787.00
2024-01-15T12:03:21.357Z,786.00
2024-01-15T12:04:21.412Z,783.00
2024-01-15T12:05:21.503Z,788.00
2024-01-15T12:06:21.471Z,778.00
2024-01-15T12:07:21.646Z,799.00
2024-01-15T12:08:21.550Z,803.00
2024-01-15T12:09:21.687Z,798.00
2024-01-15T12:10:21.683Z,797.00
2024-01-15T12:11:21.799Z,790.00
2024-01-15T12:12:21.861Z,803.00
2024-01-15T12:13:21.963Z,804.00
2024-01-15T12:14:21.967Z,819.00
2024-01-15T12:15:22.168Z,838.00
2024-01-15T12:16:22.100Z,875.00
2024-01-15T12:17:22.597Z,888.00
2024-01-15T12:18:22.424Z,906.00
2024-01-15T12:19:22.311Z,918.00
2024-01-15T12:20:22.317Z,932.00
2024-01-15T12:21:22.360Z,944.00
2024-01-15T12:22:22.619Z,949.00
2024-01-15T12:23:22.466Z,965.00
2024-01-15T12:24:22.551Z,984.00
2024-01-15T12:25:22.561Z,995.00
2024-01-15T12:26:22.587Z,999.00
2024-01-15T12:27:22.699Z,989.00